createdAt,value
2023-02-18T00:00:26.004Z,30.680000
2023-02-18T00:05:27.968Z,30.308000
2023-02-18T00:10:30.214Z,30.092000
2023-02-18T00:15:32.123Z,29.780000
2023-02-18T00:20:33.888Z,29.780000
2023-02-18T00:25:35.756Z,29.576000
2023-02-18T00:30:17.717Z,29.192000
2023-02-18T00:35:19.606Z,28.772000
2023-02-18T00:40:21.724Z,28.484000
2023-02-18T00:45:23.856Z,28.207143
2023-02-18T00:50:25.982Z,27.908000
2023-02-18T00:55:20.205Z,27.512000
2023-02-18T01:00:31.057Z,27.104000
2023-02-18T01:05:33.326Z,26.600000
2023-02-18T01:10:35.699Z,25.856000
2023-02-18T01:15:17.598Z,25.340000
2023-02-18T01:20:20.004Z,24.968000
2023-02-18T01:25:22.758Z,24.594286
2023-02-18T01:30:25.214Z,24.116000
2023-02-18T01:35:27.625Z,23.768000
2023-02-18T01:40:30.065Z,23.444000
2023-02-18T01:45:32.033Z,23.144000
2023-02-18T01:50:47.172Z,22.772000
2023-02-18T01:55:17.553Z,22.544000
2023-02-18T02:00:20.080Z,22.460000
2023-02-18T02:05:22.245Z,22.331429
2023-02-18T02:10:24.582Z,22.028000
2023-02-18T02:15:27.116Z,21.668000
2023-02-18T02:20:28.927Z,21.308000
2023-02-18T02:25:31.178Z,20.960000
2023-02-18T02:30:33.476Z,20.744000
2023-02-18T02:35:35.730Z,20.528000
2023-02-18T02:40:17.762Z,20.432000
2023-02-18T02:45:20.206Z,20.300000
2023-02-18T02:50:22.226Z,20.171429
2023-02-18T02:55:24.599Z,19.940000
2023-02-18T03:00:27.136Z,19.796000
2023-02-18T03:05:29.419Z,19.748000
2023-02-18T03:10:32.322Z,19.532000
2023-02-18T03:15:34.803Z,19.604000
2023-02-18T03:20:17.158Z,20.000000
2023-02-18T03:25:19.363Z,20.348000
2023-02-18T03:30:21.699Z,20.624000
2023-02-18T03:35:23.833Z,20.145714
2023-02-18T03:40:26.265Z,19.496000
2023-02-18T03:45:28.458Z,19.088000
2023-02-18T03:50:30.603Z,18.932000
2023-02-18T03:55:32.620Z,18.752000
2023-02-18T04:00:34.844Z,18.500000
2023-02-18T04:05:16.852Z,18.392000
2023-02-18T04:10:19.156Z,18.464000
2023-02-18T04:15:21.157Z,18.692000
2023-02-18T04:20:23.082Z,18.795714
2023-02-18T04:25:24.952Z,18.308000
2023-02-18T04:30:27.157Z,18.368000
2023-02-18T04:35:28.919Z,18.824000
2023-02-18T04:40:30.851Z,19.376000
2023-02-18T04:45:32.780Z,19.076000
2023-02-18T04:50:34.822Z,18.440000
2023-02-18T04:55:16.696Z,17.504000
2023-02-18T05:00:18.611Z,17.060000
2023-02-18T05:05:20.514Z,16.700000
2023-02-18T05:10:22.448Z,16.712857
2023-02-18T05:15:24.384Z,16.604000
2023-02-18T05:20:26.414Z,17.012000
2023-02-18T05:25:28.388Z,17.348000
2023-02-18T05:30:30.405Z,17.024000
2023-02-18T05:35:32.272Z,17.492000
2023-02-18T05:40:34.661Z,17.876000
2023-02-18T05:45:16.438Z,17.900000
2023-02-18T05:50:18.543Z,18.140000
2023-02-18T05:55:20.710Z,18.320000
2023-02-18T06:00:22.618Z,18.114286
2023-02-18T06:05:24.601Z,17.564000
2023-02-18T06:10:26.325Z,17.144000
2023-02-18T06:15:28.473Z,17.240000
2023-02-18T06:20:30.578Z,17.288000
2023-02-18T06:25:32.262Z,17.264000
2023-02-18T06:30:34.425Z,17.492000
2023-02-18T06:35:15.957Z,17.504000
2023-02-18T06:40:17.849Z,17.252000
2023-02-18T06:45:19.869Z,17.012000
2023-02-18T06:50:21.673Z,16.772000
2023-02-18T06:55:23.777Z,16.700000
2023-02-18T07:00:25.678Z,16.508000
2023-02-18T07:05:28.045Z,16.184000
2023-02-18T07:10:29.878Z,15.980000
2023-02-18T07:15:31.819Z,15.968000
2023-02-18T07:20:33.742Z,15.884000
2023-02-18T07:25:35.893Z,15.728000
2023-02-18T07:30:17.698Z,15.356000
2023-02-18T07:35:19.586Z,15.440000
2023-02-18T07:40:21.697Z,15.296000
2023-02-18T07:45:23.758Z,15.285714
2023-02-18T07:50:25.456Z,15.320000
2023-02-18T07:55:27.548Z,15.128000
2023-02-18T08:00:29.651Z,15.152000
2023-02-18T08:05:31.669Z,14.924000
2023-02-18T08:10:33.680Z,14.984000
2023-02-18T08:15:36.034Z,14.900000
2023-02-18T08:20:17.434Z,14.792000
2023-02-18T08:25:29.471Z,14.492000
2023-02-18T08:30:21.671Z,14.072000
2023-02-18T08:35:23.799Z,14.115714
2023-02-18T08:40:25.829Z,14.408000
2023-02-18T08:45:27.881Z,14.624000
2023-02-18T08:50:30.137Z,14.672000
2023-02-18T08:55:32.303Z,14.684000
2023-02-18T09:00:34.317Z,14.180000
2023-02-18T09:05:16.571Z,13.676000
2023-02-18T09:10:18.602Z,13.520000
2023-02-18T09:15:20.395Z,13.460000
2023-02-18T09:20:22.526Z,13.460000
2023-02-18T09:25:24.583Z,13.340000
2023-02-18T09:30:27.039Z,13.028000
2023-02-18T09:35:29.037Z,12.944000
2023-02-18T09:40:30.935Z,13.568000
2023-02-18T09:45:33.123Z,13.820000
2023-02-18T09:50:35.340Z,14.108000
2023-02-18T09:55:17.094Z,13.376000
2023-02-18T10:00:19.348Z,12.860000
2023-02-18T10:05:21.944Z,12.644000
2023-02-18T10:10:24.286Z,12.508571
2023-02-18T10:15:26.679Z,12.368000
2023-02-18T10:20:28.848Z,12.080000
2023-02-18T10:25:32.227Z,12.044000
2023-02-18T10:30:33.680Z,12.260000
2023-02-18T10:35:35.771Z,11.900000
2023-02-18T10:40:17.874Z,11.996000
2023-02-18T10:45:19.977Z,12.116000
2023-02-18T10:50:22.291Z,11.955714
2023-02-18T10:55:24.275Z,11.588000
2023-02-18T11:00:26.641Z,11.396000
2023-02-18T11:05:28.701Z,11.480000
2023-02-18T11:10:31.411Z,11.576000
2023-02-18T11:15:34.521Z,11.516000
2023-02-18T11:20:16.934Z,11.780000
2023-02-18T11:25:18.921Z,11.804000
2023-02-18T11:30:21.401Z,11.756000
2023-02-18T11:35:23.574Z,11.390000
2023-02-18T11:40:25.644Z,11.108000
2023-02-18T11:45:28.253Z,11.168000
2023-02-18T11:50:30.907Z,11.768000
2023-02-18T11:55:33.337Z,12.128000
2023-02-18T12:00:35.811Z,11.432000
2023-02-18T12:05:17.871Z,11.216000
2023-02-18T12:10:20.201Z,11.132000
2023-02-18T12:15:22.674Z,11.030000
2023-02-18T12:20:24.851Z,10.760000
2023-02-18T12:25:27.014Z,10.820000
2023-02-18T12:30:29.476Z,11.120000
2023-02-18T12:35:31.975Z,11.120000
2023-02-18T12:40:34.365Z,11.120000
2023-02-18T12:45:16.231Z,11.120000
2023-02-18T12:50:18.653Z,11.396000
2023-02-18T12:55:21.162Z,11.544286
2023-02-18T13:00:23.565Z,11.660000
2023-02-18T13:05:26.004Z,11.912000
2023-02-18T13:10:28.008Z,12.020000
2023-02-18T13:15:30.423Z,12.104000
2023-02-18T13:20:32.859Z,12.020000
2023-02-18T13:25:35.077Z,12.140000
2023-02-18T13:30:17.093Z,12.200000
2023-02-18T13:35:19.284Z,11.936000
2023-02-18T13:40:21.707Z,11.840000
2023-02-18T13:45:23.955Z,11.788571
2023-02-18T13:50:26.404Z,11.468000
2023-02-18T13:55:28.302Z,11.192000
2023-02-18T14:00:30.708Z,11.456000
2023-02-18T14:05:33.292Z,11.624000
2023-02-18T14:10:35.400Z,11.480000
2023-02-18T14:15:17.660Z,11.444000
2023-02-18T14:20:19.972Z,11.240000
2023-02-18T14:25:22.249Z,11.036000
2023-02-18T14:30:24.411Z,10.850000
2023-02-18T14:35:26.396Z,10.940000
2023-02-18T14:40:28.888Z,10.928000
2023-02-18T14:45:31.245Z,10.688000
2023-02-18T14:50:33.567Z,10.400000
2023-02-18T14:55:36.783Z,10.472000
2023-02-18T15:00:17.564Z,10.688000
2023-02-18T15:05:19.910Z,11.012000
2023-02-18T15:10:22.101Z,11.144000
2023-02-18T15:15:24.492Z,11.415714
2023-02-18T15:20:26.602Z,11.348000
2023-02-18T15:25:28.772Z,11.708000
2023-02-18T15:30:31.280Z,12.212000
2023-02-18T15:35:33.540Z,13.028000
2023-02-18T15:40:35.687Z,13.556000
2023-02-18T15:45:18.232Z,14.708000
2023-02-18T15:50:20.916Z,15.452000
2023-02-18T15:55:22.930Z,16.391429
2023-02-18T16:00:25.332Z,17.804000
2023-02-18T16:05:27.891Z,18.572000
2023-02-18T16:10:30.068Z,18.560000
2023-02-18T16:15:32.212Z,19.100000
2023-02-18T16:20:34.525Z,19.520000
2023-02-18T16:25:16.708Z,20.096000
2023-02-18T16:30:19.260Z,20.804000
2023-02-18T16:35:22.162Z,21.296000
2023-02-18T16:40:24.330Z,22.035714
2023-02-18T16:45:26.665Z,22.436000
2023-02-18T16:50:28.811Z,22.856000
2023-02-18T16:55:32.362Z,23.144000
2023-02-18T17:00:33.321Z,23.144000
2023-02-18T17:05:35.563Z,24.032000
2023-02-18T17:10:17.642Z,24.416000
2023-02-18T17:15:20.388Z,25.280000
2023-02-18T17:20:22.261Z,26.368571
2023-02-18T17:25:24.430Z,27.548000
2023-02-18T17:30:26.873Z,28.184000
2023-02-18T17:35:29.102Z,28.640000
2023-02-18T17:40:31.148Z,29.024000
2023-02-18T17:45:33.759Z,29.552000
2023-02-18T17:50:35.986Z,29.936000
2023-02-18T17:55:17.982Z,30.908000
2023-02-18T18:00:20.352Z,31.508000
2023-02-18T18:05:22.844Z,32.385714
2023-02-18T18:10:24.911Z,32.360000
2023-02-18T18:15:27.589Z,32.504000
2023-02-18T18:20:29.795Z,32.432000
2023-02-18T18:25:31.906Z,32.072000
2023-02-18T18:30:34.561Z,32.924000
2023-02-18T18:35:17.460Z,30.932000
2023-02-18T18:40:18.684Z,27.656000
2023-02-18T18:45:20.709Z,27.236000
2023-02-18T18:50:23.048Z,27.487143
2023-02-18T18:55:25.737Z,29.432000
2023-02-18T19:00:29.138Z,30.272000
2023-02-18T19:05:31.371Z,29.708000
2023-02-18T19:10:33.906Z,31.232000
2023-02-18T19:15:15.971Z,30.956000
2023-02-18T19:20:18.650Z,30.860000
2023-02-18T19:25:20.654Z,30.752000
2023-02-18T19:30:22.927Z,30.997143
2023-02-18T19:35:25.356Z,31.640000
2023-02-18T19:40:27.501Z,32.912000
2023-02-18T19:45:29.604Z,33.248000
2023-02-18T19:50:31.949Z,33.416000
2023-02-18T19:55:34.076Z,33.812000
2023-02-18T20:00:16.174Z,33.608000
2023-02-18T20:05:18.336Z,31.952000
2023-02-18T20:10:20.659Z,30.716000
2023-02-18T20:15:22.653Z,30.200000
2023-02-18T20:20:24.852Z,31.520000
2023-02-18T20:25:26.997Z,31.712000
2023-02-18T20:30:29.180Z,32.228000
2023-02-18T20:35:31.165Z,31.772000
2023-02-18T20:40:33.211Z,32.432000
2023-02-18T20:45:35.306Z,33.020000
2023-02-18T20:50:17.280Z,32.348000
2023-02-18T20:55:19.850Z,31.868000
2023-02-18T21:00:21.990Z,32.420000
2023-02-18T21:05:24.679Z,32.810000
2023-02-18T21:10:26.956Z,33.428000
2023-02-18T21:15:29.408Z,32.684000
2023-02-18T21:20:31.646Z,32.804000
2023-02-18T21:25:33.860Z,33.644000
2023-02-18T21:30:35.995Z,33.632000
2023-02-18T21:35:17.921Z,33.896000
2023-02-18T21:40:20.156Z,34.808000
2023-02-18T21:45:22.365Z,34.507143
2023-02-18T21:50:24.575Z,34.640000
2023-02-18T21:55:26.711Z,34.940000
2023-02-18T22:00:28.812Z,35.192000
2023-02-18T22:05:30.881Z,34.820000
2023-02-18T22:10:32.956Z,34.016000
2023-02-18T22:15:35.362Z,33.800000
2023-02-18T22:20:17.304Z,33.680000
2023-02-18T22:25:19.668Z,34.868000
2023-02-18T22:30:22.025Z,35.168000
2023-02-18T22:35:24.097Z,35.240000
2023-02-18T22:40:26.498Z,35.888000
2023-02-18T22:45:28.777Z,35.516000
2023-02-18T22:50:30.982Z,36.332000
2023-02-18T22:55:33.127Z,35.900000
2023-02-18T23:00:35.267Z,35.516000
2023-02-18T23:05:17.356Z,34.856000
2023-02-18T23:10:19.556Z,34.424000
2023-02-18T23:15:22.279Z,35.060000
2023-02-18T23:20:24.064Z,34.751429
2023-02-18T23:25:26.060Z,34.148000
2023-02-18T23:30:28.298Z,33.428000
2023-02-18T23:35:30.505Z,34.064000
2023-02-18T23:40:33.474Z,34.316000
2023-02-18T23:45:34.790Z,34.964000
2023-02-18T23:50:16.374Z,34.340000
2023-02-18T23:55:18.796Z,33.356000
